createdAt,value
2022-08-21T00:00:11.196Z,23.70
2022-08-21T00:01:24.349Z,23.60
2022-08-21T00:02:30.491Z,23.60
2022-08-21T00:03:33.855Z,23.50
2022-08-21T00:04:36.982Z,23.50
2022-08-21T00:05:51.525Z,23.50
2022-08-21T00:06:55.958Z,23.50
2022-08-21T00:07:58.585Z,23.40
2022-08-21T00:09:06.268Z,23.50
2022-08-21T00:10:10.620Z,23.50
2022-08-21T00:11:15.989Z,23.50
2022-08-21T00:12:18.395Z,23.40
2022-08-21T00:13:22.614Z,23.40
2022-08-21T00:14:24.903Z,23.40
2022-08-21T00:15:30.917Z,23.40
2022-08-21T00:16:33.446Z,23.40
2022-08-21T00:17:38.458Z,23.40
2022-08-21T00:18:41.806Z,23.40
2022-08-21T00:19:47.720Z,23.50
2022-08-21T00:20:50.290Z,23.50
2022-08-21T00:21:53.846Z,23.60
2022-08-21T00:22:57.552Z,23.60
2022-08-21T00:24:00.919Z,23.60
2022-08-21T00:25:05.742Z,23.70
2022-08-21T00:26:09.293Z,23.70
2022-08-21T00:27:12.915Z,23.80
2022-08-21T00:28:16.863Z,23.80
2022-08-21T00:29:24.062Z,23.80
2022-08-21T00:30:28.464Z,23.90
2022-08-21T00:31:31.069Z,23.90
2022-08-21T00:32:34.914Z,23.90
2022-08-21T00:33:39.138Z,23.90
2022-08-21T00:34:42.325Z,24.00
2022-08-21T00:35:48.052Z,24.10
2022-08-21T00:36:50.227Z,23.90
2022-08-21T00:37:53.699Z,24.10
2022-08-21T00:38:56.367Z,24.10
2022-08-21T00:39:59.816Z,24.10
2022-08-21T00:41:37.066Z,24.00
2022-08-21T00:42:31.489Z,24.00
2022-08-21T00:43:36.528Z,23.90
2022-08-21T00:44:39.868Z,23.80
2022-08-21T00:45:44.095Z,23.60
2022-08-21T00:46:47.107Z,23.60
2022-08-21T00:47:50.817Z,23.50
2022-08-21T00:48:58.987Z,23.50
2022-08-21T00:50:03.385Z,23.50
2022-08-21T00:51:12.101Z,23.50
2022-08-21T00:52:20.202Z,23.50
2022-08-21T00:53:24.244Z,23.60
2022-08-21T00:54:30.846Z,23.60
2022-08-21T00:55:36.476Z,23.70
2022-08-21T00:56:39.371Z,23.80
2022-08-21T00:57:51.450Z,23.80
2022-08-21T00:58:56.876Z,23.80
2022-08-21T01:00:09.751Z,23.90
2022-08-21T01:01:12.410Z,23.90
2022-08-21T01:02:16.269Z,23.90
2022-08-21T01:03:23.697Z,23.90
2022-08-21T01:04:31.197Z,23.90
2022-08-21T01:05:34.655Z,23.90
2022-08-21T01:06:38.314Z,23.90
2022-08-21T01:07:41.591Z,23.90
2022-08-21T01:08:46.828Z,23.80
2022-08-21T01:09:50.616Z,23.70
2022-08-21T01:10:55.804Z,23.70
2022-08-21T01:12:01.832Z,23.60
2022-08-21T01:13:10.953Z,23.50
2022-08-21T01:14:15.460Z,23.40
2022-08-21T01:15:22.703Z,23.40
2022-08-21T01:16:26.503Z,23.40
2022-08-21T01:17:32.047Z,23.40
2022-08-21T01:18:34.328Z,23.40
2022-08-21T01:19:39.083Z,23.40
2022-08-21T01:20:45.516Z,23.40
2022-08-21T01:21:51.668Z,23.30
2022-08-21T01:22:54.400Z,23.40
2022-08-21T01:23:59.417Z,23.30
2022-08-21T01:25:01.709Z,23.30
2022-08-21T01:26:06.040Z,23.30
2022-08-21T01:27:08.567Z,23.30
2022-08-21T01:28:16.296Z,23.30
2022-08-21T01:29:29.867Z,23.20
2022-08-21T01:30:38.416Z,23.30
2022-08-21T01:31:40.914Z,23.20
2022-08-21T01:32:46.670Z,23.20
2022-08-21T01:33:49.410Z,23.20
2022-08-21T01:34:54.333Z,23.10
2022-08-21T01:35:57.586Z,23.20
2022-08-21T01:37:02.286Z,23.20
2022-08-21T01:38:04.674Z,23.10
2022-08-21T01:39:08.863Z,23.20
2022-08-21T01:40:12.390Z,23.10
2022-08-21T01:41:16.415Z,23.10
2022-08-21T01:42:18.938Z,23.00
2022-08-21T01:43:23.815Z,23.00
2022-08-21T01:44:28.325Z,22.90
2022-08-21T01:45:32.131Z,22.90
2022-08-21T01:46:34.765Z,23.00
2022-08-21T01:47:38.134Z,23.00
2022-08-21T01:48:41.202Z,23.00
2022-08-21T01:49:46.988Z,23.00
2022-08-21T01:50:49.368Z,23.00
2022-08-21T01:52:01.462Z,23.00
2022-08-21T01:53:03.912Z,23.00
2022-08-21T01:54:07.196Z,22.90
2022-08-21T01:55:11.531Z,22.90
2022-08-21T01:56:17.579Z,22.90
2022-08-21T01:57:19.894Z,22.80
2022-08-21T01:58:23.443Z,22.80
2022-08-21T01:59:26.911Z,22.80
2022-08-21T02:00:30.924Z,22.70
2022-08-21T02:01:33.327Z,22.80
2022-08-21T02:02:36.606Z,22.70
2022-08-21T02:03:40.010Z,22.70
2022-08-21T02:04:43.162Z,22.70
2022-08-21T02:05:47.441Z,22.70
2022-08-21T02:06:50.974Z,22.70
2022-08-21T02:07:55.952Z,22.70
2022-08-21T02:09:01.539Z,22.70
2022-08-21T02:10:05.693Z,22.70
2022-08-21T02:11:09.632Z,22.80
2022-08-21T02:12:12.382Z,22.80
2022-08-21T02:13:18.048Z,22.80
2022-08-21T02:14:32.438Z,22.80
2022-08-21T02:15:35.536Z,22.80
2022-08-21T02:16:39.078Z,22.90
2022-08-21T02:17:44.736Z,22.90
2022-08-21T02:18:49.815Z,22.90
2022-08-21T02:19:52.351Z,22.90
2022-08-21T02:20:56.614Z,22.90
2022-08-21T02:21:59.826Z,22.80
2022-08-21T02:24:53.907Z,22.80
2022-08-21T02:26:05.235Z,22.70
2022-08-21T02:27:13.369Z,22.70
2022-08-21T02:28:27.714Z,22.70
2022-08-21T02:33:25.826Z,22.70
2022-08-21T02:34:29.330Z,22.70
2022-08-21T02:35:34.780Z,22.60
2022-08-21T02:36:37.522Z,22.60
2022-08-21T02:37:50.131Z,22.50
2022-08-21T02:38:54.585Z,22.40
2022-08-21T02:39:58.479Z,22.40
2022-08-21T02:41:01.690Z,22.30
2022-08-21T02:42:05.698Z,22.30
2022-08-21T02:43:12.711Z,22.30
2022-08-21T02:44:16.666Z,22.30
2022-08-21T02:45:21.268Z,22.30
2022-08-21T02:46:25.653Z,22.30
2022-08-21T02:47:28.138Z,22.30
2022-08-21T02:48:35.786Z,22.30
2022-08-21T02:49:38.525Z,22.30
2022-08-21T02:50:47.020Z,22.30
2022-08-21T02:51:49.539Z,22.30
2022-08-21T02:52:55.072Z,22.30
2022-08-21T02:53:59.493Z,22.30
2022-08-21T02:55:03.102Z,22.30
2022-08-21T02:56:09.732Z,22.30
2022-08-21T02:57:15.680Z,22.40
2022-08-21T02:58:22.259Z,22.30
2022-08-21T02:59:27.011Z,22.30
2022-08-21T03:00:32.468Z,22.30
2022-08-21T03:01:38.739Z,22.30
2022-08-21T03:02:41.944Z,22.30
2022-08-21T03:03:50.976Z,22.20
2022-08-21T03:04:53.618Z,22.20
2022-08-21T03:05:58.771Z,22.30
2022-08-21T03:07:01.820Z,22.20
2022-08-21T03:08:10.525Z,22.20
2022-08-21T03:09:14.546Z,22.20
2022-08-21T03:10:20.991Z,22.20
2022-08-21T03:11:24.695Z,22.10
2022-08-21T03:12:30.132Z,22.20
2022-08-21T03:13:34.322Z,22.20
2022-08-21T03:14:37.467Z,22.20
2022-08-21T03:15:42.067Z,22.10
2022-08-21T03:16:45.000Z,22.20
2022-08-21T03:17:50.037Z,22.00
2022-08-21T03:18:53.619Z,22.10
2022-08-21T03:19:57.658Z,22.10
2022-08-21T03:21:03.161Z,22.10
2022-08-21T03:22:07.297Z,22.20
2022-08-21T03:23:16.775Z,22.10
2022-08-21T03:24:23.799Z,22.10
2022-08-21T03:25:40.150Z,22.20
2022-08-21T03:26:44.295Z,22.10
2022-08-21T03:27:50.005Z,22.10
2022-08-21T03:28:58.850Z,22.10
2022-08-21T03:30:02.714Z,22.10
2022-08-21T03:31:09.247Z,22.10
2022-08-21T03:32:11.924Z,22.10
2022-08-21T03:33:16.070Z,22.10
2022-08-21T03:34:18.636Z,22.20
2022-08-21T03:35:23.003Z,22.10
2022-08-21T03:36:26.959Z,22.20
2022-08-21T03:37:30.130Z,22.10
2022-08-21T03:38:36.141Z,22.10
2022-08-21T03:39:40.681Z,22.10
2022-08-21T03:40:45.387Z,22.00
2022-08-21T03:41:48.395Z,22.00
2022-08-21T03:42:52.020Z,22.00
2022-08-21T03:43:56.298Z,22.00
2022-08-21T03:44:58.897Z,22.00
2022-08-21T03:46:04.504Z,22.00
2022-08-21T03:47:07.429Z,22.00
2022-08-21T03:48:11.267Z,22.00
2022-08-21T03:49:19.200Z,22.00
2022-08-21T03:50:22.745Z,22.00
2022-08-21T03:51:26.690Z,22.00
2022-08-21T03:52:29.202Z,22.00
2022-08-21T03:53:33.001Z,21.90
2022-08-21T03:54:36.258Z,21.90
2022-08-21T03:55:41.285Z,21.90
2022-08-21T03:56:45.377Z,21.90
2022-08-21T03:57:48.957Z,21.90
2022-08-21T03:58:52.053Z,22.00
2022-08-21T03:59:55.652Z,21.90
2022-08-21T04:01:01.535Z,21.90
2022-08-21T04:02:07.795Z,21.90
2022-08-21T04:03:10.312Z,21.90
2022-08-21T04:04:13.701Z,21.10
2022-08-21T04:05:29.235Z,21.20
2022-08-21T04:06:37.603Z,21.80
2022-08-21T04:07:41.018Z,21.70
2022-08-21T04:08:44.823Z,21.90
2022-08-21T04:09:50.424Z,22.00
2022-08-21T04:11:00.952Z,22.10
2022-08-21T04:12:04.670Z,22.10
2022-08-21T04:13:10.041Z,22.20
2022-08-21T04:14:13.164Z,22.30
2022-08-21T04:15:16.558Z,22.40
2022-08-21T04:16:20.832Z,22.50
2022-08-21T04:17:26.049Z,22.50
2022-08-21T04:18:36.087Z,22.60
2022-08-21T04:19:38.588Z,22.60
2022-08-21T04:20:45.427Z,22.60
2022-08-21T04:21:53.182Z,22.60
2022-08-21T04:23:01.855Z,22.50
2022-08-21T04:24:05.032Z,22.60
2022-08-21T04:25:10.018Z,22.60
2022-08-21T04:26:14.972Z,22.60
2022-08-21T04:27:17.945Z,22.70
2022-08-21T04:28:21.740Z,22.70
2022-08-21T04:29:25.715Z,22.80
2022-08-21T04:30:29.355Z,22.70
2022-08-21T04:31:32.007Z,22.80
2022-08-21T04:32:36.327Z,22.90
2022-08-21T04:33:38.953Z,22.90
2022-08-21T04:34:42.437Z,22.90
2022-08-21T04:35:46.610Z,22.90
2022-08-21T04:36:49.556Z,22.90
2022-08-21T04:37:54.008Z,23.90
2022-08-21T04:38:56.462Z,22.90
2022-08-21T04:40:01.439Z,22.90
2022-08-21T04:41:05.611Z,22.90
2022-08-21T04:42:10.676Z,22.90
2022-08-21T04:43:16.400Z,22.90
2022-08-21T04:44:20.063Z,22.80
2022-08-21T04:45:27.044Z,22.80
2022-08-21T04:46:31.161Z,22.90
2022-08-21T04:47:41.646Z,22.10
2022-08-21T04:48:56.977Z,23.00
2022-08-21T04:50:02.565Z,23.10
2022-08-21T04:51:14.226Z,23.10
2022-08-21T04:52:22.935Z,23.20
2022-08-21T04:53:32.705Z,23.30
2022-08-21T04:54:35.488Z,23.40
2022-08-21T04:55:40.146Z,23.40
2022-08-21T04:56:46.709Z,23.50
2022-08-21T04:57:54.710Z,23.60
2022-08-21T04:59:01.268Z,23.70
2022-08-21T05:00:11.153Z,23.80
2022-08-21T05:01:25.079Z,23.90
2022-08-21T05:02:28.400Z,23.90
2022-08-21T05:03:36.837Z,23.90
2022-08-21T05:04:45.678Z,23.90
2022-08-21T05:05:49.764Z,23.90
2022-08-21T05:06:57.581Z,24.00
2022-08-21T05:08:04.780Z,24.00
2022-08-21T05:09:10.314Z,24.10
2022-08-21T05:10:16.265Z,24.10
2022-08-21T05:11:19.454Z,24.20
2022-08-21T05:12:24.233Z,24.40
2022-08-21T05:13:28.708Z,24.40
2022-08-21T05:14:32.879Z,24.60
2022-08-21T05:15:35.283Z,24.70
2022-08-21T05:16:39.170Z,24.80
2022-08-21T05:17:42.581Z,24.80
2022-08-21T05:18:46.371Z,24.90
2022-08-21T05:19:49.066Z,24.90
2022-08-21T05:20:52.877Z,24.90
2022-08-21T05:21:56.262Z,24.80
2022-08-21T05:23:00.124Z,24.80
2022-08-21T05:24:04.412Z,24.70
2022-08-21T05:25:10.248Z,24.60
2022-08-21T05:26:13.193Z,24.60
2022-08-21T05:27:22.146Z,24.20
2022-08-21T05:28:27.690Z,24.50
2022-08-21T05:29:34.550Z,24.40
2022-08-21T05:30:38.535Z,24.40
2022-08-21T05:31:42.332Z,24.30
2022-08-21T05:32:46.233Z,24.20
2022-08-21T05:33:48.840Z,24.20
2022-08-21T05:34:55.944Z,24.20
2022-08-21T05:35:59.394Z,24.10
2022-08-21T05:37:07.368Z,24.10
2022-08-21T05:38:16.832Z,24.10
2022-08-21T05:39:22.202Z,24.10
2022-08-21T05:40:25.175Z,24.10
2022-08-21T05:41:33.699Z,24.10
2022-08-21T05:42:37.360Z,24.20
2022-08-21T05:43:42.756Z,24.10
2022-08-21T05:44:46.317Z,24.10
2022-08-21T05:45:52.303Z,25.10
2022-08-21T05:46:54.808Z,24.10
2022-08-21T05:47:58.830Z,24.20
2022-08-21T05:49:02.240Z,24.20
2022-08-21T05:50:08.733Z,23.70
2022-08-21T05:51:14.930Z,23.60
2022-08-21T05:52:21.504Z,24.20
2022-08-21T05:53:25.506Z,24.20
2022-08-21T05:54:30.323Z,24.30
2022-08-21T05:55:33.915Z,24.20
2022-08-21T05:56:45.876Z,24.20
2022-08-21T05:57:48.982Z,24.20
2022-08-21T05:58:56.791Z,24.40
2022-08-21T06:00:01.349Z,24.30
2022-08-21T06:01:06.264Z,24.40
2022-08-21T06:02:10.322Z,24.40
2022-08-21T06:03:15.042Z,24.50
2022-08-21T06:04:18.988Z,24.60
2022-08-21T06:05:36.390Z,24.70
2022-08-21T06:06:41.710Z,24.80
2022-08-21T06:07:45.841Z,24.90
2022-08-21T06:08:49.442Z,25.00
2022-08-21T06:09:52.879Z,25.20
2022-08-21T06:11:01.444Z,24.80
2022-08-21T06:12:08.170Z,25.40
2022-08-21T06:13:12.771Z,25.60
2022-08-21T06:14:17.561Z,25.60
2022-08-21T06:15:21.366Z,25.60
2022-08-21T06:16:24.498Z,25.70
2022-08-21T06:17:28.415Z,25.70
2022-08-21T06:18:31.749Z,25.80
2022-08-21T06:19:39.118Z,25.80
2022-08-21T06:20:43.508Z,25.90
2022-08-21T06:21:46.810Z,25.90
2022-08-21T06:22:50.519Z,26.00
2022-08-21T06:23:54.010Z,26.10
2022-08-21T06:24:56.903Z,26.10
2022-08-21T06:26:00.630Z,26.20
2022-08-21T06:27:07.824Z,26.30
2022-08-21T06:28:12.509Z,26.30
2022-08-21T06:29:18.827Z,26.40
2022-08-21T06:30:23.475Z,26.40
2022-08-21T06:31:30.119Z,26.50
2022-08-21T06:32:33.031Z,26.60
2022-08-21T06:33:36.712Z,26.70
2022-08-21T06:34:41.822Z,26.20
2022-08-21T06:35:45.988Z,26.60
2022-08-21T06:36:49.067Z,26.60
2022-08-21T06:37:55.410Z,26.60
2022-08-21T06:39:00.774Z,26.70
2022-08-21T06:40:12.503Z,26.70
2022-08-21T06:41:15.941Z,26.70
2022-08-21T06:42:20.152Z,26.80
2022-08-21T06:43:35.710Z,26.80
2022-08-21T06:44:46.676Z,26.80
2022-08-21T06:45:53.385Z,26.70
2022-08-21T06:46:59.345Z,26.70
2022-08-21T06:48:02.896Z,26.60
2022-08-21T06:49:08.056Z,26.70
2022-08-21T06:50:21.074Z,26.60
2022-08-21T06:51:26.659Z,26.40
2022-08-21T06:52:32.297Z,26.30
2022-08-21T06:53:36.713Z,26.40
2022-08-21T06:54:44.333Z,26.40
2022-08-21T06:55:50.578Z,26.40
2022-08-21T06:56:53.766Z,26.60
2022-08-21T06:57:57.469Z,26.70
2022-08-21T06:59:03.632Z,26.80
2022-08-21T07:00:13.842Z,27.10
2022-08-21T07:01:20.586Z,26.90
2022-08-21T07:02:27.366Z,26.90
2022-08-21T07:03:36.868Z,27.00
2022-08-21T07:04:45.404Z,27.10
2022-08-21T07:05:53.864Z,27.10
2022-08-21T07:07:00.411Z,27.10
2022-08-21T07:08:05.388Z,27.10
2022-08-21T07:09:16.360Z,27.20
2022-08-21T07:10:22.028Z,27.20
2022-08-21T07:11:28.242Z,27.20
2022-08-21T07:12:31.620Z,27.30
2022-08-21T07:13:35.647Z,27.40
2022-08-21T07:14:38.903Z,27.50
2022-08-21T07:15:44.279Z,27.50
2022-08-21T07:16:47.780Z,27.60
2022-08-21T07:17:51.261Z,27.90
2022-08-21T07:18:53.990Z,27.70
2022-08-21T07:20:06.283Z,27.80
2022-08-21T07:21:11.386Z,27.80
2022-08-21T07:22:22.084Z,27.90
2022-08-21T07:23:30.708Z,28.10
2022-08-21T07:24:34.454Z,28.10
2022-08-21T07:25:38.687Z,28.20
2022-08-21T07:26:42.994Z,28.30
2022-08-21T07:27:46.886Z,28.40
2022-08-21T07:28:50.977Z,28.50
2022-08-21T07:29:55.170Z,28.50
2022-08-21T07:31:02.603Z,28.50
2022-08-21T07:32:08.628Z,28.60
2022-08-21T07:33:12.255Z,28.60
2022-08-21T07:34:15.756Z,28.70
2022-08-21T07:35:20.505Z,28.70
2022-08-21T07:36:23.495Z,28.80
2022-08-21T07:37:27.453Z,28.80
2022-08-21T07:38:30.412Z,28.90
2022-08-21T07:39:34.113Z,28.90
2022-08-21T07:40:37.903Z,28.90
2022-08-21T07:41:40.426Z,28.90
2022-08-21T07:42:44.785Z,28.90
2022-08-21T07:43:48.176Z,28.90
2022-08-21T07:44:51.828Z,28.90
2022-08-21T07:45:59.924Z,28.80
2022-08-21T07:47:03.813Z,28.90
2022-08-21T07:48:06.584Z,28.90
2022-08-21T07:49:10.506Z,29.00
2022-08-21T07:50:14.756Z,29.00
2022-08-21T07:51:20.788Z,28.90
2022-08-21T07:52:23.405Z,29.00
2022-08-21T07:53:27.255Z,28.90
2022-08-21T07:54:33.993Z,28.90
2022-08-21T07:55:38.402Z,29.00
2022-08-21T07:56:41.050Z,29.00
2022-08-21T07:57:45.663Z,29.10
2022-08-21T07:58:51.099Z,29.10
2022-08-21T07:59:57.093Z,29.10
2022-08-21T08:01:03.452Z,29.00
2022-08-21T08:02:06.631Z,29.00
2022-08-21T08:03:11.911Z,29.00
2022-08-21T08:04:16.504Z,28.90
2022-08-21T08:05:25.416Z,28.80
2022-08-21T08:06:28.367Z,28.70
2022-08-21T08:07:32.157Z,28.60
2022-08-21T08:08:34.843Z,28.70
2022-08-21T08:09:38.486Z,28.60
2022-08-21T08:10:43.054Z,28.50
2022-08-21T08:11:46.912Z,28.60
2022-08-21T08:12:55.742Z,28.60
2022-08-21T08:14:00.529Z,28.60
2022-08-21T08:15:06.555Z,28.60
2022-08-21T08:16:11.960Z,28.60
2022-08-21T08:17:14.574Z,28.60
2022-08-21T08:18:18.796Z,28.70
2022-08-21T08:19:21.184Z,28.70
2022-08-21T08:20:27.585Z,28.70
2022-08-21T08:21:30.684Z,28.70
2022-08-21T08:22:37.150Z,28.70
2022-08-21T08:23:40.620Z,28.70
2022-08-21T08:24:44.207Z,28.70
2022-08-21T08:25:47.456Z,28.60
2022-08-21T08:26:53.847Z,28.50
2022-08-21T08:27:57.109Z,28.40
2022-08-21T08:29:00.730Z,28.40
2022-08-21T08:30:05.099Z,28.40
2022-08-21T08:31:08.545Z,28.40
2022-08-21T08:32:13.581Z,28.40
2022-08-21T08:33:18.684Z,28.30
2022-08-21T08:34:23.573Z,28.20
2022-08-21T08:35:30.000Z,28.20
2022-08-21T08:36:37.992Z,28.20
2022-08-21T08:37:52.239Z,28.30
2022-08-21T08:38:56.223Z,28.40
2022-08-21T08:39:59.425Z,28.50
2022-08-21T08:41:14.097Z,28.50
2022-08-21T08:42:33.616Z,28.60
2022-08-21T08:43:38.639Z,28.60
2022-08-21T08:44:42.740Z,28.60
2022-08-21T08:45:51.658Z,28.70
2022-08-21T08:46:57.348Z,28.80
2022-08-21T08:48:04.753Z,28.80
2022-08-21T08:49:15.896Z,28.90
2022-08-21T08:50:25.937Z,29.00
2022-08-21T08:51:41.621Z,29.00
2022-08-21T08:52:52.272Z,29.00
2022-08-21T08:54:05.029Z,29.10
2022-08-21T08:55:13.574Z,29.30
2022-08-21T08:56:18.035Z,29.40
2022-08-21T08:57:25.730Z,29.40
2022-08-21T08:58:33.157Z,29.40
2022-08-21T08:59:43.789Z,29.40
2022-08-21T09:00:52.375Z,29.40
2022-08-21T09:01:56.710Z,29.40
2022-08-21T09:03:03.697Z,29.40
2022-08-21T09:04:08.051Z,29.50
2022-08-21T09:05:22.032Z,29.40
2022-08-21T09:06:45.015Z,29.30
2022-08-21T09:08:06.250Z,29.20
2022-08-21T09:09:22.524Z,28.90
2022-08-21T09:10:40.387Z,28.80
2022-08-21T09:11:55.852Z,28.70
2022-08-21T09:13:10.036Z,28.70
2022-08-21T09:14:24.505Z,28.60
2022-08-21T09:15:37.505Z,28.50
2022-08-21T09:16:55.825Z,28.40
2022-08-21T09:18:25.651Z,28.30
2022-08-21T09:19:45.184Z,28.40
2022-08-21T09:21:00.060Z,28.40
2022-08-21T09:24:21.617Z,28.70
2022-08-21T09:25:30.734Z,28.80
2022-08-21T09:26:56.292Z,28.90
2022-08-21T09:28:04.621Z,29.00
2022-08-21T09:29:14.103Z,29.00
2022-08-21T09:30:18.906Z,29.00
2022-08-21T09:31:26.734Z,29.00
2022-08-21T09:32:45.791Z,29.00
2022-08-21T09:34:02.005Z,29.00
2022-08-21T09:35:17.822Z,29.10
2022-08-21T09:36:32.286Z,29.00
2022-08-21T09:37:47.565Z,28.90
2022-08-21T09:38:58.865Z,28.90
2022-08-21T09:40:21.565Z,28.60
2022-08-21T09:41:37.141Z,28.30
2022-08-21T09:42:57.429Z,28.20
2022-08-21T09:44:05.808Z,28.10
2022-08-21T09:45:13.505Z,28.00
2022-08-21T09:46:25.002Z,27.90
2022-08-21T09:47:28.899Z,27.80
2022-08-21T09:48:40.821Z,27.70
2022-08-21T09:50:16.773Z,27.70
2022-08-21T09:51:27.221Z,27.70
2022-08-21T09:52:30.652Z,27.80
2022-08-21T09:53:48.994Z,27.90
2022-08-21T09:54:56.305Z,28.00
2022-08-21T09:56:24.162Z,28.00
2022-08-21T09:57:46.570Z,28.10
2022-08-21T09:58:55.581Z,28.20
2022-08-21T10:00:11.688Z,28.30
2022-08-21T10:01:23.396Z,28.40
2022-08-21T10:02:38.128Z,28.50
2022-08-21T10:03:44.156Z,28.50
2022-08-21T10:04:56.694Z,28.60
2022-08-21T10:06:11.980Z,28.70
2022-08-21T10:07:26.698Z,28.80
2022-08-21T10:08:38.336Z,28.80
2022-08-21T10:09:41.202Z,28.90
2022-08-21T10:10:45.931Z,28.80
2022-08-21T10:12:01.759Z,28.80
2022-08-21T10:13:13.982Z,28.80
2022-08-21T10:14:49.586Z,28.70
2022-08-21T10:16:06.153Z,28.70
2022-08-21T10:17:20.143Z,28.70
2022-08-21T10:18:34.634Z,28.60
2022-08-21T10:19:50.797Z,28.60
2022-08-21T10:21:10.173Z,28.50
2022-08-21T10:22:32.083Z,28.40
2022-08-21T10:23:51.828Z,28.30
2022-08-21T10:25:09.900Z,28.30
2022-08-21T10:26:34.227Z,28.30
2022-08-21T10:27:48.448Z,28.30
2022-08-21T10:29:05.100Z,28.20
2022-08-21T10:30:16.207Z,28.20
2022-08-21T10:31:35.089Z,28.20
2022-08-21T10:32:59.168Z,28.20
2022-08-21T10:34:20.663Z,28.30
2022-08-21T10:35:31.565Z,28.30
2022-08-21T10:36:50.451Z,28.30
2022-08-21T10:38:50.831Z,28.30
2022-08-21T10:40:14.639Z,28.30
2022-08-21T10:41:39.648Z,28.40
2022-08-21T10:42:58.631Z,28.40
2022-08-21T10:44:16.763Z,28.40
2022-08-21T10:45:39.070Z,28.40
2022-08-21T10:46:58.068Z,28.40
2022-08-21T10:48:19.756Z,28.30
2022-08-21T10:49:37.381Z,28.30
2022-08-21T10:50:52.238Z,28.20
2022-08-21T10:52:13.965Z,28.00
2022-08-21T10:53:40.619Z,27.90
2022-08-21T10:54:54.473Z,27.80
2022-08-21T10:56:11.065Z,27.70
2022-08-21T10:57:32.446Z,27.60
2022-08-21T10:58:45.371Z,27.50
2022-08-21T11:00:01.253Z,27.50
2022-08-21T11:01:14.438Z,27.50
2022-08-21T11:02:30.771Z,27.50
2022-08-21T11:03:44.122Z,27.50
2022-08-21T11:04:57.749Z,27.50
2022-08-21T11:06:12.975Z,27.50
2022-08-21T11:07:30.686Z,27.50
2022-08-21T11:08:47.905Z,27.50
2022-08-21T11:09:58.446Z,27.60
2022-08-21T11:11:12.504Z,27.60
2022-08-21T11:12:33.397Z,28.00
2022-08-21T11:13:45.334Z,27.70
2022-08-21T11:15:28.730Z,27.80
2022-08-21T11:17:03.714Z,27.80
2022-08-21T11:18:29.154Z,27.80
2022-08-21T11:19:47.368Z,27.70
2022-08-21T11:21:01.289Z,27.80
2022-08-21T11:22:22.156Z,27.80
2022-08-21T11:23:33.269Z,27.80
2022-08-21T11:24:49.823Z,27.80
2022-08-21T11:26:03.770Z,27.90
2022-08-21T11:27:20.583Z,27.90
2022-08-21T11:28:32.673Z,27.90
2022-08-21T11:29:43.371Z,28.00
2022-08-21T11:31:06.675Z,28.10
2022-08-21T11:32:51.734Z,28.20
2022-08-21T11:34:10.947Z,28.30
2022-08-21T11:35:30.278Z,28.40
2022-08-21T11:36:49.725Z,28.30
2022-08-21T11:38:15.020Z,28.30
2022-08-21T11:39:32.456Z,28.40
2022-08-21T11:41:03.840Z,28.30
2022-08-21T11:42:22.166Z,28.20
2022-08-21T11:43:39.643Z,28.20
2022-08-21T11:45:03.212Z,28.10
2022-08-21T11:46:28.084Z,28.00
2022-08-21T11:47:48.934Z,27.90
2022-08-21T11:49:19.349Z,27.90
2022-08-21T11:50:36.418Z,27.90
2022-08-21T11:51:54.464Z,27.90
2022-08-21T11:53:09.000Z,28.00
2022-08-21T11:54:32.751Z,28.10
2022-08-21T11:55:45.291Z,28.10
2022-08-21T11:56:58.205Z,28.20
2022-08-21T11:58:13.284Z,28.20
2022-08-21T11:59:27.685Z,28.30
2022-08-21T12:00:40.388Z,28.30
2022-08-21T12:01:50.665Z,28.40
2022-08-21T12:03:02.229Z,28.50
2022-08-21T12:04:13.011Z,28.60
2022-08-21T12:05:35.263Z,28.70
2022-08-21T12:06:41.530Z,28.70
2022-08-21T12:07:48.844Z,28.70
2022-08-21T12:09:03.275Z,28.80
2022-08-21T12:10:14.583Z,28.80
2022-08-21T12:12:50.376Z,28.80
2022-08-21T12:13:59.662Z,28.90
2022-08-21T12:15:39.540Z,28.90
2022-08-21T12:16:47.752Z,28.90
2022-08-21T12:18:03.270Z,28.90
2022-08-21T12:19:16.453Z,28.90
2022-08-21T12:20:51.639Z,28.80
2022-08-21T12:22:02.424Z,28.80
2022-08-21T12:23:27.316Z,28.80
2022-08-21T12:24:43.847Z,28.80
2022-08-21T12:26:03.591Z,28.80
2022-08-21T12:27:27.719Z,28.90
2022-08-21T12:28:35.787Z,29.00
2022-08-21T12:29:42.552Z,29.00
2022-08-21T12:30:56.119Z,29.00
2022-08-21T12:32:07.259Z,29.00
2022-08-21T12:33:27.956Z,29.00
2022-08-21T12:34:40.497Z,29.00
2022-08-21T12:35:50.722Z,29.00
2022-08-21T12:37:01.677Z,28.90
2022-08-21T12:38:14.788Z,29.00
2022-08-21T12:39:25.761Z,29.00
2022-08-21T12:40:34.652Z,29.00
2022-08-21T12:42:01.825Z,28.90
2022-08-21T12:43:21.455Z,29.00
2022-08-21T12:44:45.123Z,28.90
2022-08-21T12:45:54.759Z,28.80
2022-08-21T12:47:05.571Z,28.80
2022-08-21T12:48:32.225Z,28.70
2022-08-21T12:49:41.280Z,28.70
2022-08-21T12:50:53.910Z,28.60
2022-08-21T12:52:13.384Z,28.50
2022-08-21T12:53:38.172Z,28.60
2022-08-21T12:54:45.741Z,28.50
2022-08-21T12:55:52.532Z,28.40
2022-08-21T12:56:59.662Z,28.40
2022-08-21T12:58:20.598Z,28.50
2022-08-21T12:59:26.232Z,28.50
2022-08-21T13:00:36.647Z,28.60
2022-08-21T13:01:56.517Z,28.60
2022-08-21T13:03:07.668Z,28.70
2022-08-21T13:04:29.126Z,28.80
2022-08-21T13:05:38.783Z,28.90
2022-08-21T13:06:48.529Z,29.00
2022-08-21T13:07:55.408Z,29.00
2022-08-21T13:09:07.756Z,28.90
2022-08-21T13:10:24.245Z,28.90
2022-08-21T13:11:33.811Z,29.00
2022-08-21T13:12:49.397Z,29.00
2022-08-21T13:14:00.063Z,29.10
2022-08-21T13:15:22.265Z,29.20
2022-08-21T13:16:38.002Z,29.30
2022-08-21T13:17:50.959Z,29.40
2022-08-21T13:20:32.435Z,29.40
2022-08-21T13:21:58.049Z,29.40
2022-08-21T13:23:10.838Z,29.30
2022-08-21T13:24:41.298Z,29.10
2022-08-21T13:26:11.455Z,29.00
2022-08-21T13:27:51.345Z,28.80
2022-08-21T13:29:08.658Z,28.70
2022-08-21T13:30:20.085Z,28.60
2022-08-21T13:31:34.987Z,28.50
2022-08-21T13:32:43.000Z,28.50
2022-08-21T13:33:57.529Z,28.40
2022-08-21T13:35:20.283Z,28.30
2022-08-21T13:36:36.438Z,28.20
2022-08-21T13:37:49.772Z,28.20
2022-08-21T13:39:03.440Z,28.00
2022-08-21T13:40:19.488Z,27.90
2022-08-21T13:41:30.316Z,27.90
2022-08-21T13:42:38.879Z,27.80
2022-08-21T13:43:50.352Z,27.80
2022-08-21T13:44:59.414Z,27.80
2022-08-21T13:46:12.962Z,27.80
2022-08-21T13:47:20.562Z,27.80
2022-08-21T13:48:30.193Z,27.70
2022-08-21T13:49:38.739Z,27.70
2022-08-21T13:51:07.426Z,27.70
2022-08-21T13:52:19.265Z,27.80
2022-08-21T13:53:34.218Z,27.70
2022-08-21T13:54:43.430Z,27.70
2022-08-21T13:55:55.339Z,27.70
2022-08-21T13:57:03.705Z,27.70
2022-08-21T13:58:16.288Z,27.70
2022-08-21T14:01:25.643Z,27.60
2022-08-21T14:02:42.556Z,27.60
2022-08-21T14:03:51.800Z,27.60
2022-08-21T14:05:01.328Z,27.60
2022-08-21T14:06:14.335Z,27.70
2022-08-21T14:07:22.715Z,27.80
2022-08-21T14:08:39.457Z,27.80
2022-08-21T14:09:47.916Z,27.90
2022-08-21T14:10:57.496Z,27.90
2022-08-21T14:12:30.994Z,28.00
2022-08-21T14:13:41.788Z,28.10
2022-08-21T14:15:27.175Z,28.30
2022-08-21T14:16:55.592Z,28.40
2022-08-21T14:18:20.630Z,28.50
2022-08-21T14:19:25.899Z,28.50
2022-08-21T14:20:34.450Z,28.50
2022-08-21T14:21:42.822Z,28.50
2022-08-21T14:22:51.316Z,28.50
2022-08-21T14:24:21.268Z,28.70
2022-08-21T14:25:49.877Z,28.60
2022-08-21T14:27:21.727Z,28.50
2022-08-21T14:28:33.022Z,28.50
2022-08-21T14:29:44.009Z,28.60
2022-08-21T14:30:54.641Z,28.50
2022-08-21T14:32:21.937Z,28.40
2022-08-21T14:33:34.676Z,28.30
2022-08-21T14:34:38.099Z,28.10
2022-08-21T14:35:44.052Z,28.20
2022-08-21T14:36:52.921Z,28.20
2022-08-21T14:37:57.036Z,28.20
2022-08-21T14:38:59.998Z,28.20
2022-08-21T14:40:05.297Z,28.20
2022-08-21T14:41:17.483Z,28.20
2022-08-21T14:42:23.912Z,28.20
2022-08-21T14:43:30.576Z,28.30
2022-08-21T14:44:36.836Z,28.30
2022-08-21T14:45:41.778Z,28.40
2022-08-21T14:46:56.595Z,28.40
2022-08-21T14:48:02.220Z,28.40
2022-08-21T14:49:08.161Z,28.40
2022-08-21T14:50:12.167Z,28.50
2022-08-21T14:51:20.153Z,28.70
2022-08-21T14:52:26.922Z,28.70
2022-08-21T14:53:30.247Z,28.70
2022-08-21T14:54:35.672Z,28.70
2022-08-21T14:55:55.010Z,28.60
2022-08-21T14:57:01.119Z,28.50
2022-08-21T14:58:06.296Z,28.50
2022-08-21T14:59:11.448Z,28.50
2022-08-21T15:00:21.353Z,28.50
2022-08-21T15:01:25.646Z,28.50